createdAt,value
2023-04-01T00:01:15.138Z,0.70
2023-04-01T00:03:42.341Z,0.30
2023-04-01T00:06:14.623Z,0.32
2023-04-01T00:08:41.380Z,0.43
2023-04-01T00:11:08.083Z,0.22
2023-04-01T00:13:34.913Z,0.40
2023-04-01T00:16:03.626Z,0.47
2023-04-01T00:18:31.681Z,0.43
2023-04-01T00:20:58.333Z,0.40
2023-04-01T00:23:24.907Z,0.40
2023-04-01T00:25:51.724Z,0.40
2023-04-01T00:28:19.972Z,0.40
2023-04-01T00:30:46.968Z,0.30
2023-04-01T00:33:13.888Z,0.40
2023-04-01T00:35:40.674Z,0.40
2023-04-01T00:38:07.731Z,0.47
2023-04-01T00:40:44.188Z,0.50
2023-04-01T00:43:20.604Z,0.40
2023-04-01T00:45:49.684Z,0.40
2023-04-01T00:48:21.924Z,0.35
2023-04-01T00:50:55.653Z,0.57
2023-04-01T00:53:23.668Z,0.40
2023-04-01T00:56:13.711Z,0.40
2023-04-01T00:58:44.855Z,0.40
2023-04-01T01:01:11.875Z,0.47
2023-04-01T01:03:38.602Z,0.40
2023-04-01T01:06:15.475Z,0.20
2023-04-01T01:09:31.687Z,0.50
2023-04-01T01:12:14.256Z,0.63
2023-04-01T01:15:06.436Z,0.40
2023-04-01T01:17:32.961Z,0.43
2023-04-01T01:20:33.000Z,0.30
2023-04-01T01:23:24.504Z,0.73
2023-04-01T01:26:23.517Z,0.73
2023-04-01T01:29:07.139Z,0.60
2023-04-01T01:32:11.445Z,0.73
2023-04-01T01:35:11.103Z,0.50
2023-04-01T01:37:40.515Z,0.45
2023-04-01T01:40:09.892Z,0.30
2023-04-01T01:42:40.544Z,0.43
2023-04-01T01:45:11.304Z,0.45
2023-04-01T01:47:39.123Z,0.50
2023-04-01T01:50:06.818Z,0.40
2023-04-01T01:52:33.559Z,0.80
2023-04-01T01:55:00.224Z,0.40
2023-04-01T01:57:31.606Z,0.30
2023-04-01T02:00:13.952Z,0.40
2023-04-01T02:02:46.864Z,0.50
2023-04-01T02:05:19.477Z,0.40
2023-04-01T02:07:55.112Z,0.52
2023-04-01T02:10:23.698Z,0.50
2023-04-01T02:12:52.092Z,0.55
2023-04-01T02:15:22.404Z,0.43
2023-04-01T02:17:49.375Z,0.40
2023-04-01T02:20:20.847Z,0.70
2023-04-01T02:22:54.341Z,0.50
2023-04-01T02:25:27.060Z,0.60
2023-04-01T02:27:54.841Z,0.35
2023-04-01T02:30:22.461Z,0.50
2023-04-01T02:32:50.542Z,1.33
2023-04-01T02:35:19.290Z,0.60
2023-04-01T02:37:49.742Z,0.50
2023-04-01T02:40:17.444Z,0.30
2023-04-01T02:42:44.297Z,0.60
2023-04-01T02:45:11.860Z,0.40
2023-04-01T02:47:38.501Z,0.70
2023-04-01T02:50:06.735Z,0.38
2023-04-01T02:52:33.398Z,0.32
2023-04-01T02:55:00.285Z,0.53
2023-04-01T02:57:26.949Z,0.40
2023-04-01T02:59:53.694Z,0.40
2023-04-01T03:02:21.884Z,0.50
2023-04-01T03:04:48.661Z,0.40
2023-04-01T03:07:15.545Z,0.40
2023-04-01T03:09:42.221Z,0.57
2023-04-01T03:12:08.844Z,0.45
2023-04-01T03:14:35.525Z,0.50
2023-04-01T03:17:02.309Z,0.30
2023-04-01T03:19:29.084Z,0.40
2023-04-01T03:21:55.675Z,0.40
2023-04-01T03:24:24.990Z,0.50
2023-04-01T03:26:51.646Z,0.40
2023-04-01T03:29:18.234Z,0.40
2023-04-01T03:31:44.857Z,0.47
2023-04-01T03:34:11.508Z,0.50
2023-04-01T03:36:38.397Z,0.30
2023-04-01T03:39:05.193Z,0.40
2023-04-01T03:41:33.416Z,0.30
2023-04-01T03:44:00.017Z,0.30
2023-04-01T03:46:26.725Z,0.30
2023-04-01T03:48:53.464Z,0.50
2023-04-01T03:51:20.107Z,0.50
2023-04-01T03:53:46.927Z,0.40
2023-04-01T03:56:13.570Z,0.40
2023-04-01T03:58:40.268Z,0.30
2023-04-01T04:01:22.113Z,0.30
2023-04-01T04:03:50.739Z,0.40
2023-04-01T04:06:19.501Z,0.98
2023-04-01T04:08:46.507Z,0.40
2023-04-01T04:11:13.196Z,0.40
2023-04-01T04:13:39.917Z,0.30
2023-04-01T04:16:07.066Z,0.35
2023-04-01T04:18:34.007Z,0.40
2023-04-01T04:21:00.598Z,0.30
2023-04-01T04:23:28.287Z,0.40
2023-04-01T04:26:07.538Z,0.52
2023-04-01T04:28:34.584Z,0.20
2023-04-01T04:31:02.558Z,0.30
2023-04-01T04:33:29.411Z,0.40
2023-04-01T04:35:58.318Z,0.20
2023-04-01T04:38:25.901Z,0.20
2023-04-01T04:40:52.554Z,0.20
2023-04-01T04:43:20.048Z,0.30
2023-04-01T04:45:47.156Z,0.30
2023-04-01T04:48:20.124Z,0.47
2023-04-01T04:50:51.296Z,0.30
2023-04-01T04:53:19.454Z,0.30
2023-04-01T04:55:50.806Z,0.20
2023-04-01T04:58:18.132Z,0.20
2023-04-01T05:00:45.460Z,0.30
2023-04-01T05:03:12.871Z,0.25
2023-04-01T05:05:40.129Z,0.30
2023-04-01T05:08:07.668Z,0.20
2023-04-01T05:10:34.375Z,0.30
2023-04-01T05:13:00.981Z,0.50
2023-04-01T05:15:27.665Z,0.35
2023-04-01T05:17:54.318Z,0.32
2023-04-01T05:20:21.017Z,0.30
2023-04-01T05:22:47.666Z,0.20
2023-04-01T05:25:14.325Z,0.30
2023-04-01T05:27:41.058Z,0.30
2023-04-01T05:30:08.205Z,0.40
2023-04-01T05:32:34.892Z,0.20
2023-04-01T05:35:01.570Z,0.20
2023-04-01T05:37:28.253Z,0.30
2023-04-01T05:39:54.849Z,0.30
2023-04-01T05:42:21.427Z,0.40
2023-04-01T05:44:48.021Z,0.30
2023-04-01T05:47:14.570Z,0.30
2023-04-01T05:49:41.150Z,0.30
2023-04-01T05:52:08.019Z,0.30
2023-04-01T05:54:34.717Z,0.40
2023-04-01T05:57:02.117Z,0.32
2023-04-01T05:59:29.033Z,0.20
2023-04-01T06:01:56.255Z,0.30
2023-04-01T06:04:24.401Z,0.30
2023-04-01T06:06:51.014Z,0.30
2023-04-01T06:09:28.768Z,0.40
2023-04-01T06:12:30.932Z,0.50
2023-04-01T06:15:06.358Z,0.43
2023-04-01T06:17:47.956Z,0.40
2023-04-01T06:20:33.139Z,0.30
2023-04-01T06:23:05.663Z,0.50
2023-04-01T06:26:19.770Z,0.40
2023-04-01T06:28:58.891Z,0.50
2023-04-01T06:32:02.895Z,0.22
2023-04-01T06:35:01.343Z,0.30
2023-04-01T06:38:09.435Z,0.30
2023-04-01T06:40:45.050Z,0.30
2023-04-01T06:43:35.509Z,0.32
2023-04-01T06:46:08.020Z,0.50
2023-04-01T06:48:51.122Z,0.20
2023-04-01T06:51:55.280Z,0.25
2023-04-01T06:54:31.203Z,0.43
2023-04-01T06:57:06.764Z,0.30
2023-04-01T06:59:36.197Z,0.47
2023-04-01T07:02:11.316Z,1.02
2023-04-01T07:04:42.271Z,0.40
2023-04-01T07:07:21.259Z,0.40
2023-04-01T07:09:55.158Z,0.50
2023-04-01T07:12:36.896Z,0.30
2023-04-01T07:15:18.343Z,0.30
2023-04-01T07:17:48.094Z,0.30
2023-04-01T07:20:27.931Z,0.43
2023-04-01T07:22:58.442Z,0.40
2023-04-01T07:25:42.794Z,0.43
2023-04-01T07:28:20.209Z,0.38
2023-04-01T07:31:15.252Z,0.40
2023-04-01T07:33:58.873Z,0.70
2023-04-01T07:36:40.568Z,0.73
2023-04-01T07:39:32.300Z,0.60
2023-04-01T07:42:36.559Z,0.60
2023-04-01T07:45:18.881Z,0.43
2023-04-01T07:47:59.866Z,0.53
2023-04-01T07:50:32.267Z,0.30
2023-04-01T07:53:24.848Z,0.52
2023-04-01T07:56:11.665Z,0.30
2023-04-01T07:58:51.578Z,0.30
2023-04-01T08:01:46.098Z,0.40
2023-04-01T08:04:47.884Z,1.15
2023-04-01T08:07:31.877Z,0.40
2023-04-01T08:10:15.427Z,0.38
2023-04-01T08:13:00.910Z,0.40
2023-04-01T08:15:33.220Z,0.20
2023-04-01T08:18:13.328Z,0.20
2023-04-01T08:20:51.624Z,0.52
2023-04-01T08:23:26.056Z,0.32
2023-04-01T08:26:41.462Z,0.38
2023-04-01T08:29:18.035Z,0.30
2023-04-01T08:32:04.334Z,0.30
2023-04-01T08:34:39.038Z,0.35
2023-04-01T08:37:09.261Z,0.30
2023-04-01T08:39:40.657Z,0.43
2023-04-01T08:42:30.442Z,0.40
2023-04-01T08:45:52.888Z,0.35
2023-04-01T08:48:22.394Z,0.40
2023-04-01T08:51:26.399Z,0.52
2023-04-01T08:54:23.367Z,0.40
2023-04-01T08:57:27.256Z,0.30
2023-04-01T09:00:26.957Z,0.38
2023-04-01T09:03:22.417Z,0.40
2023-04-01T09:06:01.518Z,0.20
2023-04-01T09:09:10.686Z,0.30
2023-04-01T09:11:51.811Z,0.33
2023-04-01T09:14:31.760Z,0.50
2023-04-01T09:17:22.850Z,0.40
2023-04-01T09:19:52.203Z,0.40
2023-04-01T09:22:52.047Z,0.40
2023-04-01T09:25:39.791Z,0.57
2023-04-01T09:28:33.161Z,0.40
2023-04-01T09:31:11.805Z,0.47
2023-04-01T09:33:56.038Z,0.50
2023-04-01T09:36:41.641Z,0.55
2023-04-01T09:39:36.678Z,0.40
2023-04-01T09:42:43.068Z,0.45
2023-04-01T09:45:32.295Z,0.60
2023-04-01T09:48:20.809Z,0.70
2023-04-01T09:51:02.365Z,0.55
2023-04-01T09:53:45.870Z,0.70
2023-04-01T09:56:34.461Z,0.60
2023-04-01T09:59:10.199Z,0.60
2023-04-01T10:01:43.396Z,0.50
2023-04-01T10:04:36.443Z,1.35
2023-04-01T10:07:23.365Z,0.70
2023-04-01T10:10:11.251Z,0.50
2023-04-01T10:12:43.860Z,0.63
2023-04-01T10:15:13.535Z,0.55
2023-04-01T10:18:08.647Z,0.47
2023-04-01T10:21:00.304Z,0.43
2023-04-01T10:23:44.491Z,0.50
2023-04-01T10:26:32.500Z,0.77
2023-04-01T10:29:20.899Z,1.67
2023-04-01T10:32:29.055Z,0.40
2023-04-01T10:35:27.459Z,0.97
2023-04-01T10:38:32.673Z,1.88
2023-04-01T10:41:26.027Z,0.68
2023-04-01T10:44:12.755Z,0.40
2023-04-01T10:47:13.709Z,1.52
2023-04-01T10:49:49.435Z,1.47
2023-04-01T10:52:48.687Z,0.98
2023-04-01T10:55:38.337Z,0.60
2023-04-01T10:58:29.577Z,0.35
2023-04-01T11:00:59.251Z,0.55
2023-04-01T11:04:12.832Z,0.30
2023-04-01T11:07:04.422Z,0.73
2023-04-01T11:09:43.114Z,0.70
2023-04-01T11:12:21.947Z,0.40
2023-04-01T11:14:51.539Z,0.50
2023-04-01T11:17:31.640Z,0.53
2023-04-01T11:20:01.283Z,0.60
2023-04-01T11:22:55.954Z,0.90
2023-04-01T11:25:41.152Z,1.50
2023-04-01T11:28:43.443Z,1.10
2023-04-01T11:31:27.347Z,0.50
2023-04-01T11:34:17.836Z,0.20
2023-04-01T11:37:05.913Z,0.57
2023-04-01T11:39:47.961Z,1.02
2023-04-01T11:42:45.790Z,0.50
2023-04-01T11:45:36.389Z,0.50
2023-04-01T11:48:18.277Z,0.43
2023-04-01T11:50:50.952Z,0.63
2023-04-01T11:53:28.402Z,0.30
2023-04-01T11:56:01.180Z,0.50
2023-04-01T11:58:46.131Z,0.50
2023-04-01T12:01:26.405Z,0.40
2023-04-01T12:03:53.219Z,0.40
2023-04-01T12:06:34.835Z,0.32
2023-04-01T12:09:18.232Z,0.40
2023-04-01T12:12:12.579Z,0.30
2023-04-01T12:15:04.363Z,0.65
2023-04-01T12:17:48.986Z,0.47
2023-04-01T12:20:24.627Z,0.40
2023-04-01T12:23:07.829Z,0.25
2023-04-01T12:25:54.347Z,0.30
2023-04-01T12:28:26.558Z,0.43
2023-04-01T12:31:07.471Z,0.45
2023-04-01T12:33:52.363Z,0.50
2023-04-01T12:36:32.224Z,0.82
2023-04-01T12:39:21.545Z,0.90
2023-04-01T12:42:13.333Z,0.40
2023-04-01T12:44:52.121Z,0.40
2023-04-01T12:47:51.584Z,0.80
2023-04-01T12:50:21.208Z,0.50
2023-04-01T12:52:56.717Z,0.43
2023-04-01T12:55:23.463Z,0.40
2023-04-01T12:58:03.269Z,1.35
2023-04-01T13:01:07.826Z,0.80
2023-04-01T13:04:12.210Z,0.70
2023-04-01T13:07:00.122Z,0.63
2023-04-01T13:10:18.937Z,0.50
2023-04-01T13:13:19.605Z,0.40
2023-04-01T13:15:57.130Z,0.40
2023-04-01T13:18:39.093Z,0.57
2023-04-01T13:21:42.811Z,0.47
2023-04-01T13:24:28.287Z,0.38
2023-04-01T13:27:10.054Z,0.50
2023-04-01T13:29:38.249Z,0.40
2023-04-01T13:32:43.229Z,0.52
2023-04-01T13:35:13.519Z,0.40
2023-04-01T13:38:01.964Z,0.50
2023-04-01T13:40:38.337Z,1.02
2023-04-01T13:43:23.644Z,0.40
2023-04-01T13:46:14.886Z,0.40
2023-04-01T13:49:02.727Z,0.40
2023-04-01T13:51:41.648Z,0.80
2023-04-01T13:54:17.437Z,0.50
2023-04-01T13:57:08.336Z,0.35
2023-04-01T13:59:34.953Z,0.60
2023-04-01T14:02:39.069Z,0.30
2023-04-01T14:05:24.382Z,0.38
2023-04-01T14:08:32.329Z,0.40
2023-04-01T14:11:23.515Z,0.55
2023-04-01T14:14:05.727Z,0.32
2023-04-01T14:16:41.480Z,0.60
2023-04-01T14:19:53.274Z,0.63
2023-04-01T14:23:01.542Z,0.70
2023-04-01T14:25:59.437Z,0.75
2023-04-01T14:28:39.642Z,0.60
2023-04-01T14:31:33.351Z,1.10
2023-04-01T14:34:27.507Z,0.93
2023-04-01T14:37:00.210Z,0.40
2023-04-01T14:40:23.067Z,0.47
2023-04-01T14:43:16.788Z,0.38
2023-04-01T14:45:52.086Z,0.60
2023-04-01T14:48:50.724Z,0.60
2023-04-01T14:51:39.726Z,0.50
2023-04-01T14:54:14.820Z,0.60
2023-04-01T14:56:44.947Z,0.57
2023-04-01T14:59:22.770Z,0.57
2023-04-01T15:02:23.771Z,0.50
2023-04-01T15:05:11.868Z,0.40
2023-04-01T15:08:01.893Z,0.70
2023-04-01T15:10:59.979Z,0.30
2023-04-01T15:13:35.940Z,0.60
2023-04-01T15:16:28.673Z,0.68
2023-04-01T15:19:16.082Z,0.40
2023-04-01T15:22:04.548Z,0.35
2023-04-01T15:25:19.234Z,0.40
2023-04-01T15:27:57.420Z,0.50
2023-04-01T15:31:06.008Z,0.50
2023-04-01T15:33:47.196Z,0.30
2023-04-01T15:36:23.023Z,0.60
2023-04-01T15:39:16.523Z,0.70
2023-04-01T15:42:07.400Z,0.50
2023-04-01T15:44:39.431Z,0.35
2023-04-01T15:47:27.634Z,0.38
2023-04-01T15:50:01.484Z,0.40
2023-04-01T15:52:55.908Z,0.35
2023-04-01T15:55:38.554Z,0.80
2023-04-01T15:58:29.111Z,0.75
2023-04-01T16:01:17.483Z,0.65
2023-04-01T16:03:47.121Z,0.88
2023-04-01T16:06:35.507Z,0.63
2023-04-01T16:09:15.481Z,0.43
2023-04-01T16:12:05.829Z,0.55
2023-04-01T16:14:47.630Z,1.00
2023-04-01T16:18:00.292Z,0.77
2023-04-01T16:20:43.596Z,0.88
2023-04-01T16:23:23.446Z,0.63
2023-04-01T16:26:03.985Z,0.52
2023-04-01T16:28:53.477Z,0.50
2023-04-01T16:31:45.034Z,0.40
2023-04-01T16:34:31.424Z,0.52
2023-04-01T16:37:09.022Z,2.30
2023-04-01T16:39:44.652Z,1.40
2023-04-01T16:42:25.576Z,0.50
2023-04-01T16:45:18.449Z,0.60
2023-04-01T16:48:02.590Z,0.65
2023-04-01T16:50:42.733Z,1.00
2023-04-01T16:53:12.664Z,0.80
2023-04-01T16:56:06.572Z,0.57
2023-04-01T16:59:07.693Z,0.43
2023-04-01T17:02:04.129Z,0.55
2023-04-01T17:04:49.154Z,0.60
2023-04-01T17:07:33.350Z,0.95
2023-04-01T17:10:07.102Z,2.08
2023-04-01T17:12:41.960Z,0.57
2023-04-01T17:15:43.978Z,0.63
2023-04-01T17:18:38.593Z,0.83
2023-04-01T17:21:11.474Z,0.65
2023-04-01T17:23:52.188Z,0.40
2023-04-01T17:26:26.870Z,0.75
2023-04-01T17:29:16.037Z,0.90
2023-04-01T17:31:46.129Z,1.00
2023-04-01T17:34:31.584Z,0.60
2023-04-01T17:37:30.235Z,0.60
2023-04-01T17:40:08.923Z,1.83
2023-04-01T17:42:43.040Z,1.98
2023-04-01T17:45:29.176Z,1.50
2023-04-01T17:48:16.654Z,1.00
2023-04-01T17:51:21.601Z,1.10
2023-04-01T17:54:12.694Z,0.60
2023-04-01T17:57:04.225Z,0.73
2023-04-01T18:00:04.318Z,1.60
2023-04-01T18:02:43.402Z,0.73
2023-04-01T18:05:31.866Z,0.98
2023-04-01T18:08:29.630Z,0.30
2023-04-01T18:11:05.740Z,0.70
2023-04-01T18:13:42.195Z,0.67
2023-04-01T18:16:29.878Z,0.80
2023-04-01T18:19:10.403Z,0.60
2023-04-01T18:21:57.354Z,0.50
2023-04-01T18:24:36.770Z,0.43
2023-04-01T18:27:05.494Z,0.50
2023-04-01T18:29:52.793Z,0.52
2023-04-01T18:32:48.897Z,0.57
2023-04-01T18:35:53.321Z,0.60
2023-04-01T18:38:46.719Z,0.50
2023-04-01T18:41:24.078Z,0.47
2023-04-01T18:44:06.006Z,1.00
2023-04-01T18:46:47.192Z,0.90
2023-04-01T18:49:21.781Z,0.82
2023-04-01T18:51:59.643Z,0.88
2023-04-01T18:54:42.103Z,0.80
2023-04-01T18:57:16.497Z,1.35
2023-04-01T19:00:04.140Z,0.60
2023-04-01T19:02:41.996Z,0.50
2023-04-01T19:05:39.331Z,0.50
2023-04-01T19:08:35.595Z,0.80
2023-04-01T19:11:17.177Z,1.55
2023-04-01T19:13:49.823Z,1.55
2023-04-01T19:16:48.820Z,1.05
2023-04-01T19:19:35.608Z,0.60
2023-04-01T19:22:33.585Z,1.40
2023-04-01T19:25:11.381Z,0.70
2023-04-01T19:27:46.956Z,1.05
2023-04-01T19:30:35.778Z,1.27
2023-04-01T19:33:23.244Z,0.70
2023-04-01T19:36:02.280Z,1.03
2023-04-01T19:38:37.708Z,1.80
2023-04-01T19:41:23.679Z,1.33
2023-04-01T19:44:08.484Z,2.55
2023-04-01T19:46:43.692Z,2.83
2023-04-01T19:49:19.044Z,1.07
2023-04-01T19:51:54.067Z,3.20
2023-04-01T19:54:29.691Z,2.40
2023-04-01T19:57:16.037Z,3.38
2023-04-01T19:59:57.386Z,1.85
2023-04-01T20:02:52.228Z,5.83
2023-04-01T20:05:36.990Z,2.75
2023-04-01T20:08:34.493Z,2.10
2023-04-01T20:11:05.831Z,1.33
2023-04-01T20:13:32.294Z,2.22
2023-04-01T20:16:08.551Z,1.87
2023-04-01T20:18:46.122Z,1.65
2023-04-01T20:21:15.933Z,1.80
2023-04-01T20:23:52.179Z,1.42
2023-04-01T20:26:26.916Z,0.90
2023-04-01T20:29:13.983Z,1.13
2023-04-01T20:31:46.516Z,0.75
2023-04-01T20:34:13.061Z,2.40
2023-04-01T20:36:49.042Z,1.30
2023-04-01T20:39:42.514Z,1.30
2023-04-01T20:42:25.253Z,0.70
2023-04-01T20:45:07.993Z,0.60
2023-04-01T20:48:19.746Z,1.10
2023-04-01T20:50:53.295Z,1.00
2023-04-01T20:53:29.075Z,1.17
2023-04-01T20:56:16.900Z,0.97
2023-04-01T20:59:17.376Z,1.60
2023-04-01T21:02:17.997Z,2.20
2023-04-01T21:05:07.168Z,1.98
2023-04-01T21:07:59.891Z,2.28
2023-04-01T21:10:51.347Z,1.53
2023-04-01T21:13:23.945Z,1.40
2023-04-01T21:16:28.122Z,2.38
2023-04-01T21:19:20.649Z,3.17
2023-04-01T21:22:12.138Z,1.98
2023-04-01T21:24:56.870Z,2.00
2023-04-01T21:28:01.058Z,2.20
2023-04-01T21:30:59.070Z,1.25
2023-04-01T21:33:45.927Z,1.60
2023-04-01T21:36:49.939Z,1.40
2023-04-01T21:39:34.951Z,1.83
2023-04-01T21:42:21.009Z,1.10
2023-04-01T21:45:03.575Z,1.80
2023-04-01T21:48:04.473Z,2.28
2023-04-01T21:50:42.622Z,0.90
2023-04-01T21:53:34.333Z,0.73
2023-04-01T21:56:13.076Z,0.70
2023-04-01T21:59:00.260Z,1.08
2023-04-01T22:01:52.688Z,0.80
2023-04-01T22:04:56.259Z,0.57
2023-04-01T22:07:30.562Z,0.80
2023-04-01T22:10:16.503Z,0.60
2023-04-01T22:12:48.554Z,0.65
2023-04-01T22:15:24.383Z,0.55
2023-04-01T22:18:04.637Z,0.63
2023-04-01T22:20:38.149Z,0.70
2023-04-01T22:23:29.093Z,0.70
2023-04-01T22:26:14.379Z,0.43
2023-04-01T22:28:59.865Z,0.50
2023-04-01T22:31:51.060Z,0.50
2023-04-01T22:34:35.277Z,0.77
2023-04-01T22:37:30.624Z,0.73
2023-04-01T22:40:22.537Z,0.57
2023-04-01T22:42:59.016Z,0.80
2023-04-01T22:45:44.540Z,0.70
2023-04-01T22:48:20.520Z,0.60
2023-04-01T22:51:16.282Z,0.52
2023-04-01T22:53:57.076Z,0.50
2023-04-01T22:56:29.970Z,0.52
2023-04-01T22:59:05.964Z,0.45
2023-04-01T23:01:40.902Z,0.30
2023-04-01T23:04:13.564Z,0.38
2023-04-01T23:06:45.305Z,0.52
2023-04-01T23:09:20.750Z,0.70
2023-04-01T23:12:06.613Z,0.68
2023-04-01T23:14:38.879Z,0.40
2023-04-01T23:17:32.275Z,0.40
2023-04-01T23:20:18.045Z,0.40
2023-04-01T23:23:25.804Z,0.60
2023-04-01T23:26:01.220Z,0.70
2023-04-01T23:28:53.305Z,0.40
2023-04-01T23:31:28.874Z,0.43
2023-04-01T23:33:58.155Z,0.50
2023-04-01T23:36:25.655Z,0.60
2023-04-01T23:38:52.507Z,0.57
2023-04-01T23:41:23.458Z,0.63
2023-04-01T23:43:59.595Z,0.43
2023-04-01T23:46:27.080Z,0.70
2023-04-01T23:48:54.524Z,0.80
2023-04-01T23:51:27.749Z,0.82
2023-04-01T23:54:11.660Z,0.83
2023-04-01T23:56:56.570Z,0.60
2023-04-01T23:59:32.383Z,0.77
